Bedford, VA (24523)

8:56 PM EDT on May 22, 2015 (GMT -0400)
Bedford City | | Change Station
CLOSE
Current Station
Personal Weather Station
Location: Bedford, VA
Elevation: 904 ft
Nearby Weather Stations

Elev 904 ft 37.35 °N, 79.52 °W | Updated 14 minutes ago

Clear
Clear
60.9 °F
Feels Like 60.9 °F
N
0.0
Wind Variable Wind from WSW
Gusts 0.0 mph

Today
High -- | Low -- °F
--% Chance of Precip.
Yesterday
High -- | Low -- °F
Precip. -- in
6:04 AM 8:25 PM
Waxing Crescent, 25% visible
Pressure 30.19 in
Visibility 10.0 miles
Clouds Clear
Dew Point 49 °F
Humidity 66%
Rainfall 0.00 in
Snow Depth Not available.
UV 0 out of 12
Pollen 8.40 out of 12
Air Quality Not available.
Flu Activity No Activity
METAR KLYH 222354Z 23003KT 10SM CLR 19/06 A3021 RMK AO2 SLP224 T01890061 10228 20189 53009

More Conditions Fewer Conditions

Pressure 30.19 in
Visibility 10.0 miles
Clouds Clear
Dew Point 49 °F
Humidity 66%
Rainfall 0.00 in
Snow Depth Not available.
UV 0 out of 12
Pollen 8.40 out of 12
Air Quality Not available.
Flu Activity No Activity
METAR KLYH 222354Z 23003KT 10SM CLR 19/06 A3021 RMK AO2 SLP224 T01890061 10228 20189 53009

More Conditions Fewer Conditions

10-Day Weather Forecast

Almanac

Astronomy

May. 22, 2015 Rise Set
Actual Time
Civil Twilight
Nautical Twilight
Astronomical Twilight
Moon
Length of Visible Light
Length of Day
Tomorrow will be .
, % of the Moon is Illuminated

Today's Extremes

State Highs State Lows

Community

WunderPhotos

Upload Photos

1,823,350 photos uploaded!

WunderBlogs® & News

Nearby

Air Quality

  Air Quality AQ Index Pollutant
Not available.

Snow Depth

Station Depth Elevation

Earthquake Activity

City Distance Mag. Time & Date
Minimum magnitude displayed is 2.5.

Coastal Water Temperatures

Place Temperature

Stations

Nearby Weather Stations

Station Location Temp. Windchill Dew Point Humidity Wind Precip. Elev Updated Type